Time;durP1;ratioP1;P1;durP2;ratioP2;P2;SDS_P1;SDS_P2;PMS_P1;PMS_P2;Temp;Humidity;BMP_temperature;BMP_pressure;BME280_temperature;BME280_humidity;BME280_pressure;Samples;Min_cycle;Max_cycle;Signal;HPM_P1;HPM_P2
2021/03/31 00:02:25;;;;;;;;;14.50;14.50;;;;;;;;5083548;28;11409;-83
2021/03/31 00:04:52;;;;;;;;;16.00;16.00;;;;;;;;5087716;28;11455;-83
2021/03/31 00:07:21;;;;;;;;;25.00;20.50;;;;;;;;5086029;28;11503;-87
2021/03/31 00:09:48;;;;;;;;;18.50;17.00;;;;;;;;5085818;28;11610;-87
2021/03/31 00:12:16;;;;;;;;;16.75;16.75;;;;;;;;5085067;28;11640;-84
2021/03/31 00:14:43;;;;;;;;;18.25;16.00;;;;;;;;5086098;28;11468;-83
2021/03/31 00:17:10;;;;;;;;;17.00;14.75;;;;;;;;5083903;28;11498;-84
2021/03/31 00:19:37;;;;;;;;;13.75;13.75;;;;;;;;5084184;28;11491;-83
2021/03/31 00:22:09;;;;;;;;;15.00;15.00;;;;;;;;5084370;28;11610;-84
2021/03/31 00:24:40;;;;;;;;;20.25;16.50;;;;;;;;5085899;28;11624;-88
2021/03/31 00:27:10;;;;;;;;;15.75;15.75;;;;;;;;5085461;28;11484;-82
2021/03/31 00:29:38;;;;;;;;;21.50;18.25;;;;;;;;5083327;28;11490;-83
2021/03/31 00:32:07;;;;;;;;;13.75;13.75;;;;;;;;5076465;28;11452;-85
2021/03/31 00:34:34;;;;;;;;;21.50;21.25;;;;;;;;5082773;28;11484;-84
2021/03/31 00:37:01;;;;;;;;;15.25;15.25;;;;;;;;5085263;28;11496;-84
2021/03/31 00:39:28;;;;;;;;;26.50;21.50;;;;;;;;5079886;28;12305;-86
2021/03/31 00:41:54;;;;;;;;;17.25;17.25;;;;;;;;5086074;28;11539;-83
2021/03/31 00:44:21;;;;;;;;;16.50;16.50;;;;;;;;5087392;28;11534;-84
2021/03/31 00:46:49;;;;;;;;;18.25;15.75;;;;;;;;5084780;28;12360;-87
2021/03/31 00:49:15;;;;;;;;;17.00;17.00;;;;;;;;5086699;28;12061;-82
2021/03/31 00:51:44;;;;;;;;;13.00;12.00;;;;;;;;5087307;28;11538;-85
2021/03/31 00:54:12;;;;;;;;;20.50;20.50;;;;;;;;5086665;28;11468;-86
2021/03/31 00:56:39;;;;;;;;;18.25;17.25;;;;;;;;5081073;28;11501;-88
2021/03/31 00:59:07;;;;;;;;;21.00;21.00;;;;;;;;5076544;28;12158;-86
2021/03/31 01:01:39;;;;;;;;;19.50;16.75;;;;;;;;5076631;27;11436;-82
2021/03/31 01:04:07;;;;;;;;;18.50;14.50;;;;;;;;5087660;28;12445;-84
2021/03/31 01:06:37;;;;;;;;;22.75;19.50;;;;;;;;5083870;28;11549;-84
2021/03/31 01:09:05;;;;;;;;;23.75;23.75;;;;;;;;5084872;28;11551;-84
2021/03/31 01:11:43;;;;;;;;;20.75;20.50;;;;;;;;5085841;28;11578;-85
2021/03/31 01:14:16;;;;;;;;;19.00;16.75;;;;;;;;5084622;28;11594;-86
2021/03/31 01:16:48;;;;;;;;;20.50;18.50;;;;;;;;5085790;28;11498;-84
2021/03/31 01:19:41;;;;;;;;;16.75;16.75;;;;;;;;5086852;28;11528;-84
2021/03/31 01:22:40;;;;;;;;;19.50;16.00;;;;;;;;5096987;28;11537;-85
2021/03/31 01:25:18;;;;;;;;;20.25;20.00;;;;;;;;5076739;28;11670;-85
2021/03/31 01:28:30;;;;;;;;;18.75;16.25;;;;;;;;5082933;28;11586;-84
2021/03/31 01:31:03;;;;;;;;;22.00;19.75;;;;;;;;5076101;28;11509;-84
2021/03/31 01:33:58;;;;;;;;;16.50;14.50;;;;;;;;5082852;28;11547;-84
2021/03/31 01:36:27;;;;;;;;;23.50;18.50;;;;;;;;5074703;28;11535;-89
2021/03/31 01:38:59;;;;;;;;;20.00;18.25;;;;;;;;5086070;28;11545;-86
2021/03/31 01:41:26;;;;;;;;;18.75;15.75;;;;;;;;5083512;28;11539;-83
2021/03/31 01:43:56;;;;;;;;;21.00;19.00;;;;;;;;5085762;28;11511;-87
2021/03/31 01:46:25;;;;;;;;;19.00;17.25;;;;;;;;5084497;28;11592;-89
2021/03/31 01:48:53;;;;;;;;;26.00;22.00;;;;;;;;5087238;28;11671;-88
2021/03/31 01:51:22;;;;;;;;;23.75;20.75;;;;;;;;5083296;28;12319;-88
2021/03/31 01:53:50;;;;;;;;;22.00;18.50;;;;;;;;5083194;28;11543;-83
2021/03/31 01:56:18;;;;;;;;;21.75;21.75;;;;;;;;5084091;28;11569;-83
2021/03/31 01:58:46;;;;;;;;;21.50;21.50;;;;;;;;5083140;28;11576;-91
2021/03/31 02:01:17;;;;;;;;;26.50;22.00;;;;;;;;5083904;28;11461;-86
2021/03/31 02:03:45;;;;;;;;;23.75;20.25;;;;;;;;5093045;28;11751;-89
2021/03/31 02:06:12;;;;;;;;;21.50;17.75;;;;;;;;5086015;28;11633;-86
2021/03/31 02:08:41;;;;;;;;;17.75;16.00;;;;;;;;5090541;28;11569;-86
2021/03/31 02:11:10;;;;;;;;;23.25;21.00;;;;;;;;5082886;28;11541;-86
2021/03/31 02:13:37;;;;;;;;;26.25;26.25;;;;;;;;5083664;28;11594;-86
2021/03/31 02:16:05;;;;;;;;;16.25;16.25;;;;;;;;5083303;28;11540;-86
2021/03/31 02:18:33;;;;;;;;;22.50;19.50;;;;;;;;5083132;28;11557;-85
2021/03/31 02:21:01;;;;;;;;;25.00;21.00;;;;;;;;5075744;28;11620;-86
2021/03/31 02:23:29;;;;;;;;;25.75;21.75;;;;;;;;5083674;28;12669;-85
2021/03/31 02:25:56;;;;;;;;;25.25;20.25;;;;;;;;5083661;28;11560;-85
2021/03/31 02:28:24;;;;;;;;;21.75;19.00;;;;;;;;5082015;28;11691;-85
2021/03/31 02:30:51;;;;;;;;;19.75;19.75;;;;;;;;5079568;28;11507;-82
2021/03/31 02:33:19;;;;;;;;;26.00;21.75;;;;;;;;5082227;28;11532;-86
2021/03/31 02:35:47;;;;;;;;;17.00;17.00;;;;;;;;5083169;28;11616;-85
2021/03/31 02:38:16;;;;;;;;;29.25;25.00;;;;;;;;5084190;28;11572;-84
2021/03/31 02:40:46;;;;;;;;;23.50;18.75;;;;;;;;5081809;28;11576;-87
2021/03/31 02:43:15;;;;;;;;;22.25;18.50;;;;;;;;5086453;28;11661;-85
2021/03/31 02:45:46;;;;;;;;;19.50;18.25;;;;;;;;5083562;28;11555;-84
2021/03/31 02:48:15;;;;;;;;;23.50;21.00;;;;;;;;5087687;28;11548;-85
2021/03/31 02:50:43;;;;;;;;;25.50;23.00;;;;;;;;5087561;28;11521;-86
2021/03/31 02:53:11;;;;;;;;;18.50;18.00;;;;;;;;5086459;28;11750;-86
2021/03/31 02:55:39;;;;;;;;;22.00;18.50;;;;;;;;5087254;28;11533;-85
2021/03/31 02:58:08;;;;;;;;;21.25;18.50;;;;;;;;5085902;28;11551;-85
2021/03/31 03:00:35;;;;;;;;;26.50;25.25;;;;;;;;5084729;28;11506;-88
2021/03/31 03:03:04;;;;;;;;;17.50;17.50;;;;;;;;5089393;28;11585;-89
2021/03/31 03:05:31;;;;;;;;;21.25;21.25;;;;;;;;5087898;28;11547;-89
2021/03/31 03:07:59;;;;;;;;;31.00;30.50;;;;;;;;5087341;28;11538;-89
2021/03/31 03:10:26;;;;;;;;;36.25;30.75;;;;;;;;5086921;28;11539;-88
2021/03/31 03:12:57;;;;;;;;;27.75;23.25;;;;;;;;5087631;28;11564;-83
2021/03/31 03:15:27;;;;;;;;;25.75;23.00;;;;;;;;5085234;28;11567;-88
2021/03/31 03:17:54;;;;;;;;;21.50;18.00;;;;;;;;5087565;28;11590;-87
2021/03/31 03:20:23;;;;;;;;;15.75;14.00;;;;;;;;5085592;28;11581;-88
2021/03/31 03:22:53;;;;;;;;;22.25;20.25;;;;;;;;5087083;28;11561;-85
2021/03/31 03:25:22;;;;;;;;;24.75;20.75;;;;;;;;5086630;28;11656;-86
2021/03/31 03:27:50;;;;;;;;;21.25;21.25;;;;;;;;5086379;28;11543;-84
2021/03/31 03:30:19;;;;;;;;;27.25;19.50;;;;;;;;5095351;28;11525;-88
2021/03/31 03:32:48;;;;;;;;;22.00;21.75;;;;;;;;5093043;28;11554;-89
2021/03/31 03:35:16;;;;;;;;;31.50;22.00;;;;;;;;5096002;28;11629;-85
2021/03/31 03:37:45;;;;;;;;;25.75;25.00;;;;;;;;5087082;28;11561;-91
2021/03/31 03:40:13;;;;;;;;;20.25;20.25;;;;;;;;5086907;28;11546;-88
2021/03/31 03:42:41;;;;;;;;;20.50;18.25;;;;;;;;5086563;28;11570;-86
2021/03/31 03:45:09;;;;;;;;;24.25;24.25;;;;;;;;5086202;28;11534;-87
2021/03/31 03:47:36;;;;;;;;;26.00;24.00;;;;;;;;5084207;28;11550;-85
2021/03/31 03:50:08;;;;;;;;;24.00;21.25;;;;;;;;5085957;28;11655;-86
2021/03/31 03:52:38;;;;;;;;;23.75;21.75;;;;;;;;5086351;28;11570;-83
2021/03/31 03:55:08;;;;;;;;;19.75;19.75;;;;;;;;5081579;28;11551;-87
2021/03/31 03:57:35;;;;;;;;;19.50;19.50;;;;;;;;5076639;28;11715;-86
2021/03/31 04:00:04;;;;;;;;;22.00;21.50;;;;;;;;5085839;28;11621;-86
2021/03/31 04:02:31;;;;;;;;;25.25;22.75;;;;;;;;5084452;28;11521;-83
2021/03/31 04:04:58;;;;;;;;;17.50;15.25;;;;;;;;5087218;28;11525;-86
2021/03/31 04:07:25;;;;;;;;;20.75;20.75;;;;;;;;5083451;27;11542;-82
2021/03/31 04:09:52;;;;;;;;;21.75;21.75;;;;;;;;5086479;28;11565;-87
2021/03/31 04:12:20;;;;;;;;;22.50;22.50;;;;;;;;5085939;28;11549;-85
2021/03/31 04:14:48;;;;;;;;;25.25;23.00;;;;;;;;5093116;28;11524;-85
2021/03/31 04:17:18;;;;;;;;;23.25;23.25;;;;;;;;5101109;28;11555;-84
2021/03/31 04:19:47;;;;;;;;;30.50;26.00;;;;;;;;5077635;28;11684;-87
2021/03/31 04:22:15;;;;;;;;;20.75;20.00;;;;;;;;5086823;28;11517;-84
2021/03/31 04:24:42;;;;;;;;;29.25;27.00;;;;;;;;5085293;28;11570;-87
2021/03/31 04:27:11;;;;;;;;;33.25;28.50;;;;;;;;5088406;28;11558;-85
2021/03/31 04:29:41;;;;;;;;;25.50;23.50;;;;;;;;5088141;28;11705;-83
2021/03/31 04:32:09;;;;;;;;;25.25;23.50;;;;;;;;5091243;28;11491;-87
2021/03/31 04:34:36;;;;;;;;;21.25;20.25;;;;;;;;5086465;28;11582;-87
2021/03/31 04:37:03;;;;;;;;;22.50;22.50;;;;;;;;5089371;28;11545;-88
2021/03/31 04:39:30;;;;;;;;;27.25;24.50;;;;;;;;5086713;28;12121;-89
2021/03/31 04:41:57;;;;;;;;;21.00;20.50;;;;;;;;5086122;28;11623;-86
2021/03/31 04:44:24;;;;;;;;;28.50;28.50;;;;;;;;5086701;28;11687;-82
2021/03/31 04:46:51;;;;;;;;;30.75;25.00;;;;;;;;5085166;28;11572;-89
2021/03/31 04:49:18;;;;;;;;;31.25;29.00;;;;;;;;5084962;28;11732;-88
2021/03/31 04:51:48;;;;;;;;;28.25;27.00;;;;;;;;5085533;28;11564;-87
2021/03/31 04:54:14;;;;;;;;;27.75;25.50;;;;;;;;5086688;28;11558;-88
2021/03/31 04:56:41;;;;;;;;;29.00;24.25;;;;;;;;5085701;28;11660;-84
2021/03/31 04:59:08;;;;;;;;;22.00;21.50;;;;;;;;5086367;28;11589;-89
2021/03/31 05:01:35;;;;;;;;;27.50;23.00;;;;;;;;5089399;28;11522;-86
2021/03/31 05:04:03;;;;;;;;;22.25;22.25;;;;;;;;5080089;28;11593;-83
2021/03/31 05:06:30;;;;;;;;;30.75;25.25;;;;;;;;5083631;28;12212;-81
2021/03/31 05:08:57;;;;;;;;;21.25;21.25;;;;;;;;5086700;28;11589;-81
2021/03/31 05:11:26;;;;;;;;;25.00;25.00;;;;;;;;5080530;28;12462;-83
2021/03/31 05:13:53;;;;;;;;;24.00;23.00;;;;;;;;5082640;28;11557;-85
2021/03/31 05:16:20;;;;;;;;;22.00;22.00;;;;;;;;5085521;28;11567;-86
2021/03/31 05:18:47;;;;;;;;;24.25;24.25;;;;;;;;5078623;28;11540;-87
2021/03/31 05:21:14;;;;;;;;;28.75;26.00;;;;;;;;5073909;28;11526;-84
2021/03/31 05:23:41;;;;;;;;;21.75;21.75;;;;;;;;5078921;28;11713;-85
2021/03/31 05:26:08;;;;;;;;;23.50;21.25;;;;;;;;5077699;28;12408;-87
2021/03/31 05:28:39;;;;;;;;;18.00;17.00;;;;;;;;5081272;28;11557;-86
2021/03/31 05:31:07;;;;;;;;;24.00;23.50;;;;;;;;5077378;28;12299;-85
2021/03/31 05:33:34;;;;;;;;;28.25;26.50;;;;;;;;5079439;28;12299;-80
2021/03/31 05:36:01;;;;;;;;;26.00;25.25;;;;;;;;5078217;28;12547;-70
2021/03/31 05:38:28;;;;;;;;;26.25;25.25;;;;;;;;5074428;28;11638;-69
2021/03/31 05:40:57;;;;;;;;;30.75;28.00;;;;;;;;5075708;28;12797;-70
2021/03/31 05:43:24;;;;;;;;;36.25;31.75;;;;;;;;5081513;28;12274;-69
2021/03/31 05:45:53;;;;;;;;;26.50;25.50;;;;;;;;5075117;28;11562;-70
2021/03/31 05:48:19;;;;;;;;;25.50;25.50;;;;;;;;5085055;28;11547;-70
2021/03/31 05:50:46;;;;;;;;;20.00;20.00;;;;;;;;5086027;28;11567;-69
2021/03/31 05:53:13;;;;;;;;;23.75;19.50;;;;;;;;5078723;28;11556;-70
2021/03/31 05:55:41;;;;;;;;;24.75;24.75;;;;;;;;5083057;28;11601;-69
2021/03/31 05:58:09;;;;;;;;;24.25;21.25;;;;;;;;5083975;28;11651;-69
2021/03/31 06:00:36;;;;;;;;;30.00;28.75;;;;;;;;5082179;28;11613;-68
2021/03/31 06:03:04;;;;;;;;;31.25;28.25;;;;;;;;5088954;28;11652;-70
2021/03/31 06:05:32;;;;;;;;;36.25;31.75;;;;;;;;5079312;28;12367;-70
2021/03/31 06:07:59;;;;;;;;;38.25;32.50;;;;;;;;5081522;28;12320;-71
2021/03/31 06:10:28;;;;;;;;;26.25;20.75;;;;;;;;5079528;28;11592;-71
2021/03/31 06:12:58;;;;;;;;;31.50;28.00;;;;;;;;5081762;28;11670;-70
2021/03/31 06:15:30;;;;;;;;;24.00;22.50;;;;;;;;5081833;28;11548;-70
2021/03/31 06:17:59;;;;;;;;;28.50;27.50;;;;;;;;5073222;28;11559;-70
2021/03/31 06:20:57;;;;;;;;;30.50;27.25;;;;;;;;5082538;28;11616;-71
2021/03/31 06:26:29;;;;;;;;;34.00;31.75;;;;;;;;5080972;28;11575;-70
2021/03/31 06:28:58;;;;;;;;;33.25;30.25;;;;;;;;5081306;28;11636;-69
2021/03/31 06:31:30;;;;;;;;;27.75;25.00;;;;;;;;5073664;28;11682;-69
2021/03/31 06:34:02;;;;;;;;;31.25;25.75;;;;;;;;5081430;28;12328;-70
2021/03/31 06:36:40;;;;;;;;;34.75;32.00;;;;;;;;5080287;28;12437;-70
2021/03/31 06:39:23;;;;;;;;;33.00;26.75;;;;;;;;5081589;28;11564;-70
2021/03/31 06:41:55;;;;;;;;;31.25;26.25;;;;;;;;5079688;28;12304;-71
2021/03/31 06:44:39;;;;;;;;;37.00;34.75;;;;;;;;5077987;28;11591;-70
2021/03/31 06:47:12;;;;;;;;;39.00;32.75;;;;;;;;5081720;28;11637;-69
2021/03/31 06:49:39;;;;;;;;;41.00;38.75;;;;;;;;5079782;28;11573;-71
2021/03/31 06:52:07;;;;;;;;;40.25;37.75;;;;;;;;5081209;28;11585;-71
2021/03/31 06:54:46;;;;;;;;;28.25;26.50;;;;;;;;5079633;28;11569;-71
2021/03/31 06:57:15;;;;;;;;;34.00;30.50;;;;;;;;5080415;28;12462;-71
2021/03/31 06:59:43;;;;;;;;;48.75;36.50;;;;;;;;5080875;28;11671;-70
2021/03/31 07:02:10;;;;;;;;;37.50;35.75;;;;;;;;5088697;28;11532;-69
2021/03/31 07:04:37;;;;;;;;;42.25;38.50;;;;;;;;5083777;28;11575;-70
2021/03/31 07:07:07;;;;;;;;;38.00;34.75;;;;;;;;5077688;28;12340;-70
2021/03/31 07:09:35;;;;;;;;;41.25;36.50;;;;;;;;5080074;28;13031;-71
2021/03/31 07:12:02;;;;;;;;;39.75;36.50;;;;;;;;5080187;28;11680;-70
2021/03/31 07:14:30;;;;;;;;;43.00;36.00;;;;;;;;5078665;28;11691;-71
2021/03/31 07:16:58;;;;;;;;;39.00;37.00;;;;;;;;5080483;28;11548;-70
2021/03/31 07:19:27;;;;;;;;;42.00;39.25;;;;;;;;5076428;28;11585;-70
2021/03/31 07:21:54;;;;;;;;;42.00;37.25;;;;;;;;5078018;28;11691;-69
2021/03/31 07:24:21;;;;;;;;;42.50;36.75;;;;;;;;5078682;28;11604;-70
2021/03/31 07:26:48;;;;;;;;;35.50;35.50;;;;;;;;5040842;28;11667;-69
2021/03/31 07:29:19;;;;;;;;;44.00;37.50;;;;;;;;5040322;28;11511;-69
2021/03/31 07:31:48;;;;;;;;;35.25;33.25;;;;;;;;5043421;28;11514;-70
2021/03/31 07:34:20;;;;;;;;;34.25;30.25;;;;;;;;5043715;28;11524;-70
2021/03/31 07:36:49;;;;;;;;;37.00;29.50;;;;;;;;5042125;28;11510;-70
2021/03/31 07:39:18;;;;;;;;;37.25;34.00;;;;;;;;5043034;28;11643;-69
2021/03/31 07:41:45;;;;;;;;;33.75;31.25;;;;;;;;5042502;28;11558;-70
2021/03/31 07:44:17;;;;;;;;;36.75;32.25;;;;;;;;5042864;28;11686;-70
2021/03/31 07:46:45;;;;;;;;;23.50;23.50;;;;;;;;5039228;28;11542;-71
2021/03/31 07:49:13;;;;;;;;;29.25;24.50;;;;;;;;5042784;28;11519;-70
2021/03/31 07:51:54;;;;;;;;;30.50;30.50;;;;;;;;5043597;28;11380;-70
2021/03/31 07:54:21;;;;;;;;;38.50;31.50;;;;;;;;5041771;28;11301;-70
2021/03/31 07:56:48;;;;;;;;;37.25;31.25;;;;;;;;5043349;28;11172;-70
2021/03/31 07:59:18;;;;;;;;;27.75;27.50;;;;;;;;5041949;28;11235;-71
2021/03/31 08:01:47;;;;;;;;;36.75;34.00;;;;;;;;5041032;28;11185;-71
2021/03/31 08:04:16;;;;;;;;;39.75;36.50;;;;;;;;5042615;28;11153;-72
2021/03/31 08:06:45;;;;;;;;;35.50;33.25;;;;;;;;5042438;28;11025;-72
2021/03/31 08:09:19;;;;;;;;;36.50;33.75;;;;;;;;5042363;28;11049;-72
2021/03/31 08:11:55;;;;;;;;;31.50;30.00;;;;;;;;5042475;28;11768;-71
2021/03/31 08:14:43;;;;;;;;;35.25;33.50;;;;;;;;5042973;28;10910;-72
2021/03/31 08:17:12;;;;;;;;;35.25;32.25;;;;;;;;5041697;28;11019;-71
2021/03/31 08:19:41;;;;;;;;;42.25;38.75;;;;;;;;5031238;28;10604;-71
2021/03/31 08:22:38;;;;;;;;;41.75;37.50;;;;;;;;5042033;28;10966;-70
2021/03/31 08:25:26;;;;;;;;;44.75;39.75;;;;;;;;5053458;28;11832;-71
2021/03/31 08:28:02;;;;;;;;;37.00;35.75;;;;;;;;5077964;28;10652;-71
2021/03/31 08:30:30;;;;;;;;;33.75;31.75;;;;;;;;5082479;28;10351;-71
2021/03/31 08:32:57;;;;;;;;;38.75;35.75;;;;;;;;5082249;28;10283;-72
2021/03/31 08:35:26;;;;;;;;;41.00;37.50;;;;;;;;5083308;28;10294;-71
2021/03/31 08:37:53;;;;;;;;;41.00;36.25;;;;;;;;5082005;28;10233;-70
2021/03/31 08:40:21;;;;;;;;;37.75;34.25;;;;;;;;5082706;28;10192;-71
2021/03/31 08:42:54;;;;;;;;;47.50;40.00;;;;;;;;5081508;28;10259;-72
2021/03/31 08:45:32;;;;;;;;;36.50;34.00;;;;;;;;5081895;28;10128;-72
2021/03/31 08:48:00;;;;;;;;;43.50;37.00;;;;;;;;5082375;28;9979;-69
2021/03/31 08:50:30;;;;;;;;;32.25;32.00;;;;;;;;5082170;28;9850;-70
2021/03/31 08:53:09;;;;;;;;;37.00;33.50;;;;;;;;5082747;28;9638;-69
2021/03/31 08:55:38;;;;;;;;;41.33;34.00;;;;;;;;5080980;28;9669;-70
2021/03/31 08:58:07;;;;;;;;;36.75;34.75;;;;;;;;5082999;28;9501;-70
2021/03/31 09:00:43;;;;;;;;;32.67;32.00;;;;;;;;5082234;28;9392;-69
2021/03/31 09:03:10;;;;;;;;;30.00;30.00;;;;;;;;5094478;28;9274;-69
2021/03/31 09:05:37;;;;;;;;;33.33;31.67;;;;;;;;5082642;28;9083;-70
2021/03/31 09:08:07;;;;;;;;;37.00;34.33;;;;;;;;5081361;28;9158;-70
2021/03/31 09:10:34;;;;;;;;;38.67;36.00;;;;;;;;5082550;28;9132;-70
2021/03/31 09:13:01;;;;;;;;;40.00;33.67;;;;;;;;5080998;28;9108;-69
2021/03/31 09:15:28;;;;;;;;;38.00;34.50;;;;;;;;5082200;28;8948;-70
2021/03/31 09:17:56;;;;;;;;;37.75;34.50;;;;;;;;5081465;28;8955;-70
2021/03/31 09:20:23;;;;;;;;;34.75;31.50;;;;;;;;5081647;28;8857;-71
2021/03/31 09:22:49;;;;;;;;;34.50;32.25;;;;;;;;5082166;28;8891;-70
2021/03/31 09:25:20;;;;;;;;;35.75;31.50;;;;;;;;5080776;28;8861;-70
2021/03/31 09:27:47;;;;;;;;;31.50;30.75;;;;;;;;5082540;28;8992;-71
2021/03/31 09:30:17;;;;;;;;;37.00;32.75;;;;;;;;5080293;28;8889;-71
2021/03/31 09:32:50;;;;;;;;;32.00;29.50;;;;;;;;5082181;28;8937;-71
2021/03/31 09:35:19;;;;;;;;;36.50;32.75;;;;;;;;5081867;28;8938;-71
2021/03/31 09:37:47;;;;;;;;;40.50;33.50;;;;;;;;5081655;28;8885;-71
2021/03/31 09:40:21;;;;;;;;;35.00;31.00;;;;;;;;5080745;28;8853;-71
2021/03/31 09:42:54;;;;;;;;;45.50;36.50;;;;;;;;5080052;28;10429;-73
2021/03/31 09:45:23;;;;;;;;;40.50;34.75;;;;;;;;5076181;28;8846;-72
2021/03/31 09:47:51;;;;;;;;;34.75;32.25;;;;;;;;5079720;28;8881;-73
2021/03/31 09:50:20;;;;;;;;;32.00;31.25;;;;;;;;5081739;28;8969;-71
2021/03/31 09:52:47;;;;;;;;;47.50;38.50;;;;;;;;5081489;28;8857;-72
2021/03/31 09:55:15;;;;;;;;;36.50;33.00;;;;;;;;5080516;28;8853;-71
2021/03/31 09:57:44;;;;;;;;;36.50;31.75;;;;;;;;5079667;28;8866;-72
2021/03/31 10:00:13;;;;;;;;;42.50;36.50;;;;;;;;5078853;28;8854;-72
2021/03/31 10:02:41;;;;;;;;;44.25;35.00;;;;;;;;5088847;28;8865;-71
2021/03/31 10:05:12;;;;;;;;;42.50;35.00;;;;;;;;5080229;28;8883;-71
2021/03/31 10:07:39;;;;;;;;;36.25;34.25;;;;;;;;5081297;28;8862;-72
2021/03/31 10:10:07;;;;;;;;;34.50;32.50;;;;;;;;5078687;28;8873;-73
2021/03/31 10:12:35;;;;;;;;;37.75;31.75;;;;;;;;5077737;28;8880;-73
2021/03/31 10:15:05;;;;;;;;;35.00;31.25;;;;;;;;5080884;28;8860;-71
2021/03/31 10:17:33;;;;;;;;;38.75;35.50;;;;;;;;5079489;28;8958;-73
2021/03/31 10:20:10;;;;;;;;;37.75;32.50;;;;;;;;5081086;28;8849;-73
2021/03/31 10:22:39;;;;;;;;;37.50;32.50;;;;;;;;5075129;28;8870;-73
2021/03/31 10:25:07;;;;;;;;;40.00;32.20;;;;;;;;5078312;28;8931;-71
2021/03/31 10:27:43;;;;;;;;;36.50;32.75;;;;;;;;5078949;28;8845;-72
2021/03/31 10:30:23;;;;;;;;;42.00;36.00;;;;;;;;5071426;28;8886;-72
2021/03/31 10:32:50;;;;;;;;;40.00;34.25;;;;;;;;5079611;28;8870;-71
2021/03/31 10:35:17;;;;;;;;;35.00;29.80;;;;;;;;5078146;28;8858;-72
2021/03/31 10:37:58;;;;;;;;;27.40;25.80;;;;;;;;5077964;28;9559;-70
2021/03/31 10:40:56;;;;;;;;;27.40;26.20;;;;;;;;5079088;28;9707;-71
2021/03/31 10:49:09;;;;;;;;;31.00;28.40;;;;;;;;5080472;28;8866;-73
2021/03/31 10:51:44;;;;;;;;;32.80;27.60;;;;;;;;5080586;28;9028;-73
2021/03/31 10:54:14;;;;;;;;;31.60;29.80;;;;;;;;5079565;28;8846;-74
2021/03/31 10:56:49;;;;;;;;;34.40;29.60;;;;;;;;5076861;28;9005;-73
2021/03/31 10:59:16;;;;;;;;;28.20;26.20;;;;;;;;5079789;28;8891;-72
2021/03/31 11:01:44;;;;;;;;;30.40;25.60;;;;;;;;5079378;28;8814;-72
2021/03/31 11:04:11;;;;;;;;;22.20;22.00;;;;;;;;5081756;28;8854;-72
2021/03/31 11:06:38;;;;;;;;;18.60;18.60;;;;;;;;5082466;28;9666;-72
2021/03/31 11:09:05;;;;;;;;;22.60;17.40;;;;;;;;5083614;28;8862;-72
2021/03/31 11:11:32;;;;;;;;;23.80;21.20;;;;;;;;5083401;28;8849;-72
2021/03/31 11:13:59;;;;;;;;;19.60;19.60;;;;;;;;5081008;28;8857;-73
2021/03/31 11:16:26;;;;;;;;;23.20;20.20;;;;;;;;5082698;28;8965;-72
2021/03/31 11:19:06;;;;;;;;;27.80;21.40;;;;;;;;5083159;28;8876;-72
2021/03/31 11:27:05;;;;;;;;;22.00;18.80;;;;;;;;5080969;28;8849;-72
2021/03/31 11:29:32;;;;;;;;;18.40;17.40;;;;;;;;5085324;28;9758;-73
2021/03/31 11:31:59;;;;;;;;;21.80;19.00;;;;;;;;5078359;28;8864;-72
2021/03/31 11:34:27;;;;;;;;;19.00;18.80;;;;;;;;5083953;28;8873;-72
2021/03/31 11:36:54;;;;;;;;;20.00;16.60;;;;;;;;5082988;28;8877;-72
2021/03/31 11:39:21;;;;;;;;;15.20;14.20;;;;;;;;5084014;28;8887;-72
2021/03/31 11:41:48;;;;;;;;;10.60;9.00;;;;;;;;5083553;28;8868;-72
2021/03/31 11:44:15;;;;;;;;;15.60;13.00;;;;;;;;5080687;28;8868;-73
2021/03/31 11:46:41;;;;;;;;;22.60;18.00;;;;;;;;5083791;28;9669;-75
2021/03/31 11:49:08;;;;;;;;;22.20;20.80;;;;;;;;5083121;28;9015;-74
2021/03/31 11:51:36;;;;;;;;;21.40;19.80;;;;;;;;5080056;28;8849;-73
2021/03/31 11:54:04;;;;;;;;;20.80;18.40;;;;;;;;5071875;28;8900;-75
2021/03/31 11:56:30;;;;;;;;;16.20;16.20;;;;;;;;5080050;28;8915;-73
2021/03/31 11:58:57;;;;;;;;;22.00;21.40;;;;;;;;5082950;28;8888;-71
2021/03/31 12:01:25;;;;;;;;;24.60;22.20;;;;;;;;5083235;28;8853;-73
2021/03/31 12:03:51;;;;;;;;;19.20;19.20;;;;;;;;5084272;28;8974;-72
2021/03/31 12:06:18;;;;;;;;;20.80;19.40;;;;;;;;5081991;28;8961;-73
2021/03/31 12:08:49;;;;;;;;;19.60;17.40;;;;;;;;5084068;28;8949;-73
2021/03/31 12:11:16;;;;;;;;;17.40;14.00;;;;;;;;5082284;28;9663;-73
2021/03/31 12:13:44;;;;;;;;;18.20;16.40;;;;;;;;5083770;28;8946;-74
2021/03/31 12:16:11;;;;;;;;;15.80;14.40;;;;;;;;5080276;28;8889;-72
2021/03/31 12:18:37;;;;;;;;;17.40;17.00;;;;;;;;5081807;28;8850;-72
2021/03/31 12:21:05;;;;;;;;;17.20;17.20;;;;;;;;5082045;28;8878;-72
2021/03/31 12:23:32;;;;;;;;;15.00;13.00;;;;;;;;5080787;28;8912;-75
2021/03/31 12:26:00;;;;;;;;;13.80;12.00;;;;;;;;5077465;28;8846;-72
2021/03/31 12:28:27;;;;;;;;;17.80;17.20;;;;;;;;5077487;28;8853;-71
2021/03/31 12:30:54;;;;;;;;;18.00;16.40;;;;;;;;5080102;28;8822;-72
2021/03/31 12:33:21;;;;;;;;;13.20;13.20;;;;;;;;5081418;28;8857;-71
2021/03/31 12:35:48;;;;;;;;;17.00;14.00;;;;;;;;5081991;28;8986;-71
2021/03/31 12:38:16;;;;;;;;;11.40;8.60;;;;;;;;5083930;28;9739;-71
2021/03/31 12:40:42;;;;;;;;;20.00;14.20;;;;;;;;5079886;28;8858;-72
2021/03/31 12:43:10;;;;;;;;;17.60;13.80;;;;;;;;5081998;28;8896;-72
2021/03/31 12:45:37;;;;;;;;;17.60;15.40;;;;;;;;5079536;28;8838;-71
2021/03/31 12:48:06;;;;;;;;;12.40;11.80;;;;;;;;5074686;28;8891;-71
2021/03/31 12:50:34;;;;;;;;;10.00;10.00;;;;;;;;5076036;28;9367;-72
2021/03/31 12:53:05;;;;;;;;;14.80;11.80;;;;;;;;5079130;28;9470;-71
2021/03/31 12:55:34;;;;;;;;;18.00;14.80;;;;;;;;5075686;28;9619;-71
2021/03/31 12:58:05;;;;;;;;;15.20;10.00;;;;;;;;5075334;28;8971;-71
2021/03/31 13:00:32;;;;;;;;;12.60;12.40;;;;;;;;5077650;28;8796;-72
2021/03/31 13:02:59;;;;;;;;;13.80;12.60;;;;;;;;5080588;28;8862;-71
2021/03/31 13:05:26;;;;;;;;;12.80;11.40;;;;;;;;5080332;28;10080;-71
2021/03/31 13:07:53;;;;;;;;;17.80;14.60;;;;;;;;5079101;28;8838;-72
2021/03/31 13:10:20;;;;;;;;;19.20;17.60;;;;;;;;5077867;28;8935;-71
2021/03/31 13:12:50;;;;;;;;;20.80;16.60;;;;;;;;5081530;28;8884;-70
2021/03/31 13:15:33;;;;;;;;;15.20;14.00;;;;;;;;5079846;28;8861;-70
2021/03/31 13:18:23;;;;;;;;;15.40;15.00;;;;;;;;5078337;28;9611;-71
2021/03/31 13:26:31;;;;;;;;;19.00;17.60;;;;;;;;5082672;28;8886;-72
2021/03/31 13:29:15;;;;;;;;;12.60;11.00;;;;;;;;5081622;28;8862;-72
2021/03/31 13:31:43;;;;;;;;;15.00;15.00;;;;;;;;5081680;28;8899;-72
2021/03/31 13:34:14;;;;;;;;;13.80;13.80;;;;;;;;5080737;28;8882;-72
2021/03/31 13:36:43;;;;;;;;;15.00;13.20;;;;;;;;5082097;28;9402;-73
2021/03/31 13:39:14;;;;;;;;;14.20;14.20;;;;;;;;5081178;28;9663;-72
2021/03/31 13:41:40;;;;;;;;;15.80;12.80;;;;;;;;5081264;28;9067;-72
2021/03/31 13:44:08;;;;;;;;;10.00;10.00;;;;;;;;5082178;28;8858;-72
2021/03/31 13:46:37;;;;;;;;;15.60;14.40;;;;;;;;5081254;28;8895;-72
2021/03/31 13:49:06;;;;;;;;;15.60;13.80;;;;;;;;5082355;28;8886;-72
2021/03/31 13:51:42;;;;;;;;;16.00;13.60;;;;;;;;5081602;28;8853;-72
2021/03/31 13:54:09;;;;;;;;;18.60;15.40;;;;;;;;5068280;28;8995;-72
2021/03/31 13:56:39;;;;;;;;;14.60;12.60;;;;;;;;5080397;28;8895;-72
2021/03/31 13:59:06;;;;;;;;;16.00;12.20;;;;;;;;5079687;28;8876;-74
2021/03/31 14:01:33;;;;;;;;;21.80;18.60;;;;;;;;5073209;28;8826;-74
2021/03/31 14:04:00;;;;;;;;;19.80;15.60;;;;;;;;5071917;28;9619;-74
2021/03/31 14:06:27;;;;;;;;;15.00;14.20;;;;;;;;5074349;28;9089;-74
2021/03/31 14:08:55;;;;;;;;;17.00;17.00;;;;;;;;5077498;28;8854;-74
2021/03/31 14:11:26;;;;;;;;;15.80;15.80;;;;;;;;5077991;28;8894;-74
2021/03/31 14:13:53;;;;;;;;;16.60;14.20;;;;;;;;5078443;28;8877;-74
2021/03/31 14:16:20;;;;;;;;;11.60;11.60;;;;;;;;5075638;28;8861;-74
2021/03/31 14:18:47;;;;;;;;;19.80;18.20;;;;;;;;5079116;28;8985;-74
2021/03/31 14:21:14;;;;;;;;;20.20;18.20;;;;;;;;5075250;28;8881;-74
2021/03/31 14:23:42;;;;;;;;;14.40;14.40;;;;;;;;5078537;28;8916;-75
2021/03/31 14:26:10;;;;;;;;;18.00;15.60;;;;;;;;5076084;28;9645;-74
2021/03/31 14:28:37;;;;;;;;;14.60;13.00;;;;;;;;5079155;28;8861;-75
2021/03/31 14:31:04;;;;;;;;;21.00;17.60;;;;;;;;5076025;28;9643;-74
2021/03/31 14:33:31;;;;;;;;;17.40;17.40;;;;;;;;5075958;28;8984;-75
2021/03/31 14:35:57;;;;;;;;;15.40;15.40;;;;;;;;5077824;28;8842;-75
2021/03/31 14:38:24;;;;;;;;;19.60;18.20;;;;;;;;5078356;28;9020;-76
2021/03/31 14:40:51;;;;;;;;;13.60;13.40;;;;;;;;5082372;28;8870;-75
2021/03/31 14:43:18;;;;;;;;;21.20;17.80;;;;;;;;5081583;28;8876;-75
2021/03/31 14:45:45;;;;;;;;;15.00;13.00;;;;;;;;5080949;28;10187;-75
2021/03/31 14:48:12;;;;;;;;;24.40;19.00;;;;;;;;5081710;28;8879;-75
2021/03/31 14:50:39;;;;;;;;;19.00;17.80;;;;;;;;5078946;28;8877;-76
2021/03/31 15:01:18;;;;;;;;;12.40;11.40;;;;;;;;5077284;28;8806;-73
2021/03/31 15:03:44;;;;;;;;;17.40;15.40;;;;;;;;5082035;28;8877;-73